createdAt,value
2022-11-02T00:00:49.334Z,1015.56
2022-11-02T00:01:48.750Z,1015.57
2022-11-02T00:02:48.666Z,1015.60
2022-11-02T00:03:48.590Z,1015.62
2022-11-02T00:04:48.552Z,1015.57
2022-11-02T00:05:48.609Z,1015.58
2022-11-02T00:06:48.519Z,1015.56
2022-11-02T00:07:48.472Z,1015.57
2022-11-02T00:08:48.433Z,1015.55
2022-11-02T00:09:48.448Z,1015.54
2022-11-02T00:10:48.392Z,1015.53
2022-11-02T00:11:48.319Z,1015.59
2022-11-02T00:12:48.299Z,1015.61
2022-11-02T00:13:48.276Z,1015.60
2022-11-02T00:14:48.225Z,1015.60
2022-11-02T00:15:48.834Z,1015.59
2022-11-02T00:16:48.147Z,1015.60
2022-11-02T00:17:48.134Z,1015.57
2022-11-02T00:18:48.161Z,1015.58
2022-11-02T00:19:48.036Z,1015.60
2022-11-02T00:20:48.001Z,1015.62
2022-11-02T00:21:47.998Z,1015.63
2022-11-02T00:22:47.943Z,1015.65
2022-11-02T00:23:47.911Z,1015.63
2022-11-02T00:24:48.859Z,1015.63
2022-11-02T00:25:47.843Z,1015.61
2022-11-02T00:26:47.822Z,1015.59
2022-11-02T00:27:47.775Z,1015.59
2022-11-02T00:28:47.734Z,1015.63
2022-11-02T00:29:47.686Z,1015.65
2022-11-02T00:30:47.779Z,1015.63
2022-11-02T00:31:47.672Z,1015.60
2022-11-02T00:32:47.582Z,1015.63
2022-11-02T00:33:47.566Z,1015.63
2022-11-02T00:34:47.532Z,1015.63
2022-11-02T00:35:47.514Z,1015.62
2022-11-02T00:36:51.754Z,1015.64
2022-11-02T00:37:47.486Z,1015.67
2022-11-02T00:38:47.410Z,1015.71
2022-11-02T00:39:47.381Z,1015.72
2022-11-02T00:40:47.316Z,1015.77
2022-11-02T00:41:47.286Z,1015.75
2022-11-02T00:42:47.327Z,1015.74
2022-11-02T00:43:47.242Z,1015.75
2022-11-02T00:44:47.166Z,1015.75
2022-11-02T00:45:47.146Z,1015.74
2022-11-02T00:46:47.108Z,1015.71
2022-11-02T00:47:47.075Z,1015.74
2022-11-02T00:48:47.106Z,1015.71
2022-11-02T00:49:47.012Z,1015.69
2022-11-02T00:50:46.989Z,1015.71
2022-11-02T00:51:47.011Z,1015.71
2022-11-02T00:52:46.896Z,1015.72
2022-11-02T00:53:46.865Z,1015.74
2022-11-02T00:54:46.904Z,1015.70
2022-11-02T00:55:46.798Z,1015.67
2022-11-02T00:56:46.799Z,1015.66
2022-11-02T00:57:46.730Z,1015.65
2022-11-02T00:58:46.679Z,1015.64
2022-11-02T00:59:46.649Z,1015.60
2022-11-02T01:00:46.707Z,1015.62
2022-11-02T01:01:46.742Z,1015.63
2022-11-02T01:02:46.706Z,1015.62
2022-11-02T01:03:46.533Z,1015.65
2022-11-02T01:04:46.471Z,1015.63
2022-11-02T01:05:46.549Z,1015.67
2022-11-02T01:06:46.460Z,1015.66
2022-11-02T01:07:46.387Z,1015.69
2022-11-02T01:08:46.365Z,1015.69
2022-11-02T01:09:46.324Z,1015.70
2022-11-02T01:10:48.295Z,1015.65
2022-11-02T01:11:46.258Z,1015.62
2022-11-02T01:12:46.191Z,1015.64
2022-11-02T01:13:46.173Z,1015.64
2022-11-02T01:14:46.121Z,1015.67
2022-11-02T01:15:46.182Z,1015.70
2022-11-02T01:17:46.043Z,1015.69
2022-11-02T01:18:45.991Z,1015.71
2022-11-02T01:19:45.960Z,1015.69
2022-11-02T01:20:46.042Z,1015.70
2022-11-02T01:21:45.908Z,1015.71
2022-11-02T01:22:45.858Z,1015.70
2022-11-02T01:23:45.849Z,1015.64
2022-11-02T01:24:45.785Z,1015.60
2022-11-02T01:25:45.832Z,1015.59
2022-11-02T01:26:45.717Z,1015.52
2022-11-02T01:27:45.691Z,1015.53
2022-11-02T01:28:45.664Z,1015.55
2022-11-02T01:29:45.621Z,1015.54
2022-11-02T01:30:45.589Z,1015.47
2022-11-02T01:31:45.650Z,1015.49
2022-11-02T01:32:45.535Z,1015.54
2022-11-02T01:33:45.482Z,1015.48
2022-11-02T01:34:45.429Z,1015.50
2022-11-02T01:35:45.418Z,1015.47
2022-11-02T01:36:45.356Z,1015.46
2022-11-02T01:37:45.426Z,1015.44
2022-11-02T01:38:45.304Z,1015.45
2022-11-02T01:39:45.316Z,1015.46
2022-11-02T01:40:45.297Z,1015.44
2022-11-02T01:41:45.199Z,1015.47
2022-11-02T01:42:45.193Z,1015.49
2022-11-02T01:43:45.146Z,1015.44
2022-11-02T01:44:45.107Z,1015.51
2022-11-02T01:45:45.066Z,1015.47
2022-11-02T01:46:45.108Z,1015.49
2022-11-02T01:47:45.066Z,1015.52
2022-11-02T01:48:44.990Z,1015.47
2022-11-02T01:49:44.919Z,1015.47
2022-11-02T01:50:48.355Z,1015.47
2022-11-02T01:51:44.838Z,1015.43
2022-11-02T01:52:44.877Z,1015.47
2022-11-02T01:53:44.797Z,1015.40
2022-11-02T01:54:44.758Z,1015.46
2022-11-02T01:55:44.702Z,1015.47
2022-11-02T01:56:44.687Z,1015.48
2022-11-02T01:57:45.060Z,1015.44
2022-11-02T01:58:44.602Z,1015.41
2022-11-02T01:59:44.601Z,1015.45
2022-11-02T02:00:44.555Z,1015.43
2022-11-02T02:01:44.716Z,1015.40
2022-11-02T02:02:44.671Z,1015.45
2022-11-02T02:03:44.416Z,1015.38
2022-11-02T02:04:44.394Z,1015.38
2022-11-02T02:05:44.345Z,1015.41
2022-11-02T02:06:44.336Z,1015.37
2022-11-02T02:07:44.284Z,1015.32
2022-11-02T02:08:44.341Z,1015.33
2022-11-02T02:09:48.617Z,1015.32
2022-11-02T02:10:44.193Z,1015.30
2022-11-02T02:11:44.172Z,1015.33
2022-11-02T02:12:44.129Z,1015.34
2022-11-02T02:13:44.227Z,1015.31
2022-11-02T02:14:44.082Z,1015.34
2022-11-02T02:15:44.026Z,1015.34
2022-11-02T02:16:44.023Z,1015.30
2022-11-02T02:17:43.994Z,1015.33
2022-11-02T02:18:43.897Z,1015.30
2022-11-02T02:19:43.953Z,1015.30
2022-11-02T02:20:43.856Z,1015.32
2022-11-02T02:21:43.815Z,1015.29
2022-11-02T02:22:43.779Z,1015.27
2022-11-02T02:23:43.784Z,1015.29
2022-11-02T02:24:43.702Z,1015.25
2022-11-02T02:25:43.722Z,1015.26
2022-11-02T02:26:43.670Z,1015.27
2022-11-02T02:27:43.598Z,1015.24
2022-11-02T02:28:43.858Z,1015.24
2022-11-02T02:29:43.512Z,1015.24
2022-11-02T02:30:43.478Z,1015.26
2022-11-02T02:31:43.463Z,1015.26
2022-11-02T02:32:43.414Z,1015.24
2022-11-02T02:33:43.398Z,1015.24
2022-11-02T02:34:43.452Z,1015.24
2022-11-02T02:35:43.317Z,1015.22
2022-11-02T02:36:43.297Z,1015.22
2022-11-02T02:37:43.245Z,1015.21
2022-11-02T02:38:43.262Z,1015.19
2022-11-02T02:39:43.181Z,1015.21
2022-11-02T02:40:43.219Z,1015.23
2022-11-02T02:41:43.991Z,1015.23
2022-11-02T02:42:43.063Z,1015.21
2022-11-02T02:43:43.020Z,1015.23
2022-11-02T02:44:43.055Z,1015.26
2022-11-02T02:45:42.976Z,1015.25
2022-11-02T02:46:43.274Z,1015.25
2022-11-02T02:47:42.880Z,1015.21
2022-11-02T02:48:42.853Z,1015.16
2022-11-02T02:49:42.813Z,1015.20
2022-11-02T02:50:42.788Z,1015.18
2022-11-02T02:51:42.775Z,1015.21
2022-11-02T02:52:42.849Z,1015.22
2022-11-02T02:53:42.685Z,1015.20
2022-11-02T02:54:42.661Z,1015.21
2022-11-02T02:55:42.613Z,1015.15
2022-11-02T02:56:42.676Z,1015.19
2022-11-02T02:57:42.534Z,1015.17
2022-11-02T02:58:42.570Z,1015.17
2022-11-02T02:59:42.478Z,1015.11
2022-11-02T03:00:42.469Z,1015.12
2022-11-02T03:01:42.509Z,1015.10
2022-11-02T03:02:42.399Z,1015.12
2022-11-02T03:03:42.328Z,1015.14
2022-11-02T03:04:42.400Z,1015.13
2022-11-02T03:05:42.272Z,1015.11
2022-11-02T03:06:42.224Z,1015.11
2022-11-02T03:07:42.191Z,1015.12
2022-11-02T03:08:42.194Z,1015.15
2022-11-02T03:09:42.127Z,1015.16
2022-11-02T03:10:42.167Z,1015.15
2022-11-02T03:11:42.074Z,1015.18
2022-11-02T03:12:42.013Z,1015.21
2022-11-02T03:13:41.993Z,1015.20
2022-11-02T03:14:42.010Z,1015.19
2022-11-02T03:15:41.992Z,1015.23
2022-11-02T03:16:41.889Z,1015.24
2022-11-02T03:17:41.846Z,1015.22
2022-11-02T03:18:41.837Z,1015.20
2022-11-02T03:19:41.794Z,1015.18
2022-11-02T03:20:42.103Z,1015.15
2022-11-02T03:21:41.738Z,1015.17
2022-11-02T03:22:41.712Z,1015.17
2022-11-02T03:23:41.646Z,1015.18
2022-11-02T03:24:41.597Z,1015.15
2022-11-02T03:25:41.580Z,1015.18
2022-11-02T03:26:41.599Z,1015.15
2022-11-02T03:27:41.503Z,1015.23
2022-11-02T03:28:41.494Z,1015.23
2022-11-02T03:29:41.444Z,1015.27
2022-11-02T03:30:41.415Z,1015.26
2022-11-02T03:31:41.427Z,1015.20
2022-11-02T03:32:41.330Z,1015.25
2022-11-02T03:33:41.326Z,1015.25
2022-11-02T03:34:41.256Z,1015.20
2022-11-02T03:35:41.225Z,1015.16
2022-11-02T03:36:41.242Z,1015.20
2022-11-02T03:37:41.153Z,1015.24
2022-11-02T03:38:41.126Z,1015.22
2022-11-02T03:39:41.086Z,1015.20
2022-11-02T03:40:41.072Z,1015.25
2022-11-02T03:41:41.014Z,1015.22
2022-11-02T03:42:41.050Z,1015.21
2022-11-02T03:43:40.987Z,1015.18
2022-11-02T03:44:40.943Z,1015.16
2022-11-02T03:45:41.507Z,1015.23
2022-11-02T03:46:40.887Z,1015.18
2022-11-02T03:47:40.800Z,1015.19
2022-11-02T03:48:40.817Z,1015.23
2022-11-02T03:49:40.738Z,1015.19
2022-11-02T03:50:40.687Z,1015.22
2022-11-02T03:51:40.719Z,1015.16
2022-11-02T03:52:40.626Z,1015.14
2022-11-02T03:53:40.604Z,1015.16
2022-11-02T03:54:40.572Z,1015.07
2022-11-02T03:55:40.607Z,1015.08
2022-11-02T03:56:40.521Z,1015.08
2022-11-02T03:57:40.527Z,1015.08
2022-11-02T03:58:40.422Z,1015.03
2022-11-02T03:59:40.394Z,1015.00
2022-11-02T04:00:40.374Z,1015.04
2022-11-02T04:01:40.445Z,1015.04
2022-11-02T04:02:40.401Z,1015.05
2022-11-02T04:03:40.269Z,1015.04
2022-11-02T04:04:40.225Z,1015.07
2022-11-02T04:05:40.188Z,1015.12
2022-11-02T04:06:40.135Z,1015.05
2022-11-02T04:07:40.186Z,1015.08
2022-11-02T04:08:40.066Z,1015.07
2022-11-02T04:09:40.051Z,1015.08
2022-11-02T04:10:40.026Z,1015.09
2022-11-02T04:11:39.958Z,1015.04
2022-11-02T04:12:40.007Z,1015.02
2022-11-02T04:13:39.903Z,1015.05
2022-11-02T04:14:39.862Z,1015.05
2022-11-02T04:15:39.835Z,1015.07
2022-11-02T04:16:39.880Z,1015.06
2022-11-02T04:17:39.779Z,1015.09
2022-11-02T04:18:39.812Z,1015.06
2022-11-02T04:19:39.710Z,1015.10
2022-11-02T04:20:39.662Z,1015.12
2022-11-02T04:21:39.631Z,1015.10
2022-11-02T04:22:39.572Z,1015.09
2022-11-02T04:23:39.604Z,1015.09
2022-11-02T04:24:39.516Z,1015.10
2022-11-02T04:25:39.515Z,1015.12
2022-11-02T04:26:39.463Z,1015.11
2022-11-02T04:27:39.402Z,1015.14
2022-11-02T04:28:39.605Z,1015.15
2022-11-02T04:29:39.348Z,1015.17
2022-11-02T04:30:39.297Z,1015.17
2022-11-02T04:31:39.283Z,1015.16
2022-11-02T04:32:39.283Z,1015.16
2022-11-02T04:33:39.254Z,1015.17
2022-11-02T04:34:39.169Z,1015.14
2022-11-02T04:35:39.122Z,1015.14
2022-11-02T04:36:39.094Z,1015.11
2022-11-02T04:37:39.050Z,1015.14
2022-11-02T04:38:39.110Z,1015.20
2022-11-02T04:39:38.997Z,1015.22
2022-11-02T04:40:38.952Z,1015.22
2022-11-02T04:41:38.906Z,1015.25
2022-11-02T04:42:39.544Z,1015.24
2022-11-02T04:43:38.848Z,1015.25
2022-11-02T04:44:38.871Z,1015.20
2022-11-02T04:45:38.791Z,1015.17
2022-11-02T04:46:38.808Z,1015.18
2022-11-02T04:47:38.699Z,1015.13
2022-11-02T04:48:38.668Z,1015.10
2022-11-02T04:49:38.762Z,1015.10
2022-11-02T04:50:38.622Z,1015.09
2022-11-02T04:51:38.599Z,1015.03
2022-11-02T04:52:38.667Z,1015.04
2022-11-02T04:53:38.502Z,1015.05
2022-11-02T04:54:38.532Z,1015.08
2022-11-02T04:55:38.448Z,1015.08
2022-11-02T04:56:38.451Z,1015.06
2022-11-02T04:57:38.418Z,1015.11
2022-11-02T04:58:38.337Z,1015.09
2022-11-02T04:59:38.337Z,1015.07
2022-11-02T05:00:38.244Z,1015.07
2022-11-02T05:01:38.275Z,1015.09
2022-11-02T05:02:38.280Z,1015.05
2022-11-02T05:03:38.183Z,1015.08
2022-11-02T05:04:38.190Z,1015.04
2022-11-02T05:05:38.104Z,1015.10
2022-11-02T05:06:38.034Z,1015.05
2022-11-02T05:07:38.043Z,1015.09
2022-11-02T05:08:37.966Z,1015.03
2022-11-02T05:09:37.971Z,1015.04
2022-11-02T05:10:37.962Z,1015.05
2022-11-02T05:11:37.859Z,1015.03
2022-11-02T05:12:37.856Z,1015.04
2022-11-02T05:13:37.793Z,1015.09
2022-11-02T05:14:37.838Z,1015.06
2022-11-02T05:15:37.794Z,1015.07
2022-11-02T05:16:37.687Z,1015.07
2022-11-02T05:17:37.662Z,1015.05
2022-11-02T05:18:37.623Z,1015.06
2022-11-02T05:19:37.581Z,1015.09
2022-11-02T05:20:37.605Z,1015.04
2022-11-02T05:21:37.531Z,1015.05
2022-11-02T05:22:37.499Z,1015.08
2022-11-02T05:23:37.583Z,1015.14
2022-11-02T05:24:37.439Z,1015.13
2022-11-02T05:25:37.446Z,1015.15
2022-11-02T05:26:37.388Z,1015.16
2022-11-02T05:27:37.337Z,1015.15
2022-11-02T05:28:37.290Z,1015.18
2022-11-02T05:29:37.307Z,1015.16
2022-11-02T05:30:37.200Z,1015.15
2022-11-02T05:31:37.191Z,1015.15
2022-11-02T05:32:37.160Z,1015.09
2022-11-02T05:33:37.103Z,1015.09
2022-11-02T05:34:37.069Z,1015.11
2022-11-02T05:35:37.098Z,1015.10
2022-11-02T05:36:37.017Z,1015.11
2022-11-02T05:37:36.961Z,1015.10
2022-11-02T05:38:36.939Z,1015.13
2022-11-02T05:39:36.902Z,1015.11
2022-11-02T05:40:37.610Z,1015.06
2022-11-02T05:41:36.862Z,1015.07
2022-11-02T05:42:36.793Z,1015.02
2022-11-02T05:43:36.798Z,1014.99
2022-11-02T05:44:36.701Z,1015.03
2022-11-02T05:45:36.671Z,1015.04
2022-11-02T05:46:36.630Z,1015.01
2022-11-02T05:47:36.611Z,1015.00
2022-11-02T05:48:36.586Z,1014.99
2022-11-02T05:49:36.638Z,1014.98
2022-11-02T05:50:36.510Z,1015.01
2022-11-02T05:51:36.469Z,1015.02
2022-11-02T05:52:36.431Z,1015.01
2022-11-02T05:53:36.385Z,1015.05
2022-11-02T05:54:36.430Z,1015.04
2022-11-02T05:55:36.333Z,1015.09
2022-11-02T05:56:36.281Z,1015.14
2022-11-02T05:57:36.243Z,1015.06
2022-11-02T05:58:36.213Z,1015.07
2022-11-02T05:59:36.246Z,1015.02
2022-11-02T06:00:36.213Z,1015.02
2022-11-02T06:01:36.202Z,1015.05
2022-11-02T06:02:36.075Z,1015.01
2022-11-02T06:03:36.037Z,1014.97
2022-11-02T06:04:36.000Z,1015.01
2022-11-02T06:05:36.094Z,1014.98
2022-11-02T06:06:35.990Z,1015.00
2022-11-02T06:07:35.896Z,1014.99
2022-11-02T06:08:35.859Z,1014.98
2022-11-02T06:09:35.878Z,1014.99
2022-11-02T06:10:35.789Z,1014.99
2022-11-02T06:11:35.751Z,1015.00
2022-11-02T06:12:35.779Z,1014.97
2022-11-02T06:13:35.689Z,1014.97
2022-11-02T06:14:35.651Z,1014.94
2022-11-02T06:15:35.611Z,1014.98
2022-11-02T06:16:35.578Z,1015.00
2022-11-02T06:17:35.543Z,1015.01
2022-11-02T06:18:35.564Z,1015.03
2022-11-02T06:19:35.472Z,1015.06
2022-11-02T06:20:35.437Z,1015.09
2022-11-02T06:21:35.410Z,1015.03
2022-11-02T06:22:35.366Z,1015.08
2022-11-02T06:23:35.423Z,1015.08
2022-11-02T06:24:35.300Z,1015.07
2022-11-02T06:25:35.262Z,1015.10
2022-11-02T06:26:35.229Z,1015.08
2022-11-02T06:27:35.196Z,1015.12
2022-11-02T06:28:35.159Z,1015.12
2022-11-02T06:29:35.613Z,1015.14
2022-11-02T06:30:35.115Z,1015.17
2022-11-02T06:31:35.054Z,1015.18
2022-11-02T06:32:35.025Z,1015.25
2022-11-02T06:33:34.985Z,1015.22
2022-11-02T06:34:34.948Z,1015.26
2022-11-02T06:35:35.086Z,1015.29
2022-11-02T06:36:34.880Z,1015.25
2022-11-02T06:37:34.846Z,1015.31
2022-11-02T06:38:34.804Z,1015.34
2022-11-02T06:39:34.771Z,1015.30
2022-11-02T06:40:34.740Z,1015.29
2022-11-02T06:41:34.757Z,1015.32
2022-11-02T06:42:40.414Z,1015.35
2022-11-02T06:43:34.628Z,1015.36
2022-11-02T06:44:34.594Z,1015.37
2022-11-02T06:45:34.571Z,1015.37
2022-11-02T06:46:34.585Z,1015.40
2022-11-02T06:47:34.497Z,1015.40
2022-11-02T06:48:35.653Z,1015.40
2022-11-02T06:49:34.432Z,1015.39
2022-11-02T06:50:34.391Z,1015.39
2022-11-02T06:51:34.392Z,1015.39
2022-11-02T06:52:34.417Z,1015.36
2022-11-02T06:53:34.296Z,1015.34
2022-11-02T06:54:34.333Z,1015.35
2022-11-02T06:55:34.213Z,1015.36
2022-11-02T06:56:34.202Z,1015.37
2022-11-02T06:57:34.157Z,1015.35
2022-11-02T06:58:34.114Z,1015.36
2022-11-02T06:59:34.077Z,1015.31
2022-11-02T07:00:34.448Z,1015.36
2022-11-02T07:01:34.144Z,1015.33
2022-11-02T07:02:34.002Z,1015.35
2022-11-02T07:03:33.937Z,1015.30
2022-11-02T07:04:33.902Z,1015.30
2022-11-02T07:05:33.870Z,1015.33
2022-11-02T07:06:33.942Z,1015.33
2022-11-02T07:07:33.800Z,1015.35
2022-11-02T07:08:33.763Z,1015.35
2022-11-02T07:09:33.725Z,1015.40
2022-11-02T07:10:33.692Z,1015.43
2022-11-02T07:11:33.656Z,1015.39
2022-11-02T07:12:33.673Z,1015.37
2022-11-02T07:13:33.593Z,1015.37
2022-11-02T07:14:33.555Z,1015.32
2022-11-02T07:15:33.519Z,1015.31
2022-11-02T07:16:33.514Z,1015.31
2022-11-02T07:17:33.449Z,1015.29
2022-11-02T07:18:33.493Z,1015.27
2022-11-02T07:19:33.434Z,1015.34
2022-11-02T07:20:33.348Z,1015.40
2022-11-02T07:21:33.318Z,1015.36
2022-11-02T07:22:33.279Z,1015.37
2022-11-02T07:23:33.260Z,1015.37
2022-11-02T07:24:33.271Z,1015.40
2022-11-02T07:25:33.194Z,1015.38
2022-11-02T07:26:33.144Z,1015.36
2022-11-02T07:27:33.116Z,1015.38
2022-11-02T07:28:33.080Z,1015.46
2022-11-02T07:29:33.101Z,1015.44
2022-11-02T07:30:33.008Z,1015.44
2022-11-02T07:31:32.974Z,1015.40
2022-11-02T07:32:32.944Z,1015.46
2022-11-02T07:33:32.905Z,1015.44
2022-11-02T07:34:32.892Z,1015.40
2022-11-02T07:35:32.912Z,1015.40
2022-11-02T07:36:32.809Z,1015.48
2022-11-02T07:37:32.773Z,1015.47
2022-11-02T07:38:32.741Z,1015.46
2022-11-02T07:39:32.708Z,1015.48
2022-11-02T07:40:32.678Z,1015.50
2022-11-02T07:41:32.703Z,1015.49
2022-11-02T07:42:32.606Z,1015.44
2022-11-02T07:43:32.592Z,1015.45
2022-11-02T07:44:32.543Z,1015.48
2022-11-02T07:45:32.507Z,1015.46
2022-11-02T07:46:32.472Z,1015.49
2022-11-02T07:47:32.497Z,1015.49
2022-11-02T07:48:32.414Z,1015.53
2022-11-02T07:49:32.378Z,1015.54
2022-11-02T07:50:32.355Z,1015.52
2022-11-02T07:51:32.410Z,1015.55
2022-11-02T07:52:32.273Z,1015.58
2022-11-02T07:53:32.324Z,1015.57
2022-11-02T07:54:32.211Z,1015.55
2022-11-02T07:55:32.174Z,1015.58
2022-11-02T07:56:32.236Z,1015.60
2022-11-02T07:57:32.111Z,1015.59
2022-11-02T07:58:32.077Z,1015.59
2022-11-02T07:59:32.047Z,1015.58
2022-11-02T08:00:32.013Z,1015.59
2022-11-02T08:01:32.160Z,1015.62
2022-11-02T08:02:31.990Z,1015.66
2022-11-02T08:03:31.912Z,1015.58
2022-11-02T08:04:31.881Z,1015.66
2022-11-02T08:05:31.851Z,1015.58
2022-11-02T08:06:31.813Z,1015.64
2022-11-02T08:07:31.855Z,1015.61
2022-11-02T08:08:31.756Z,1015.63
2022-11-02T08:09:31.714Z,1015.62
2022-11-02T08:10:35.429Z,1015.60
2022-11-02T08:11:31.652Z,1015.64
2022-11-02T08:12:31.683Z,1015.68
2022-11-02T08:13:32.677Z,1015.70
2022-11-02T08:14:31.553Z,1015.76
2022-11-02T08:15:31.518Z,1015.72
2022-11-02T08:16:31.489Z,1015.77
2022-11-02T08:17:31.456Z,1015.75
2022-11-02T08:18:31.477Z,1015.76
2022-11-02T08:19:31.414Z,1015.78
2022-11-02T08:20:31.364Z,1015.79
2022-11-02T08:21:31.326Z,1015.80
2022-11-02T08:22:31.298Z,1015.76
2022-11-02T08:23:31.369Z,1015.79
2022-11-02T08:24:31.333Z,1015.81
2022-11-02T08:25:31.193Z,1015.78
2022-11-02T08:26:31.169Z,1015.77
2022-11-02T08:27:31.134Z,1015.72
2022-11-02T08:28:31.099Z,1015.75
2022-11-02T08:29:31.073Z,1015.72
2022-11-02T08:30:31.098Z,1015.76
2022-11-02T08:31:31.004Z,1015.74
2022-11-02T08:32:30.975Z,1015.80
2022-11-02T08:33:30.954Z,1015.79
2022-11-02T08:34:30.907Z,1015.81
2022-11-02T08:35:30.876Z,1015.81
2022-11-02T08:36:30.903Z,1015.85
2022-11-02T08:37:30.812Z,1015.85
2022-11-02T08:38:30.777Z,1015.84
2022-11-02T08:39:30.751Z,1015.79
2022-11-02T08:40:30.715Z,1015.81
2022-11-02T08:41:30.680Z,1015.75
2022-11-02T08:42:30.713Z,1015.81
2022-11-02T08:43:30.631Z,1015.78
2022-11-02T08:44:30.588Z,1015.78
2022-11-02T08:45:53.858Z,1015.79
2022-11-02T08:46:30.524Z,1015.81
2022-11-02T08:47:30.490Z,1015.84
2022-11-02T08:48:30.530Z,1015.85
2022-11-02T08:49:30.423Z,1015.79
2022-11-02T08:50:30.397Z,1015.81
2022-11-02T08:51:30.361Z,1015.79
2022-11-02T08:52:30.337Z,1015.81
2022-11-02T08:53:30.294Z,1015.80
2022-11-02T08:54:30.335Z,1015.81
2022-11-02T08:55:30.266Z,1015.83
2022-11-02T08:56:30.220Z,1015.81
2022-11-02T08:57:30.172Z,1015.86
2022-11-02T08:58:30.143Z,1015.78
2022-11-02T08:59:30.104Z,1015.79
2022-11-02T09:00:30.141Z,1015.75
2022-11-02T09:01:30.121Z,1015.75
2022-11-02T09:02:30.128Z,1015.77
2022-11-02T09:03:29.984Z,1015.82
2022-11-02T09:04:29.948Z,1015.86
2022-11-02T09:05:29.971Z,1015.84
2022-11-02T09:06:29.883Z,1015.86
2022-11-02T09:07:29.852Z,1015.81
2022-11-02T09:08:30.065Z,1015.82
2022-11-02T09:09:29.783Z,1015.87
2022-11-02T09:10:29.752Z,1015.87
2022-11-02T09:11:29.788Z,1015.91
2022-11-02T09:12:29.686Z,1015.92
2022-11-02T09:13:29.764Z,1015.90
2022-11-02T09:14:29.670Z,1015.88
2022-11-02T09:15:29.653Z,1015.92
2022-11-02T09:16:29.570Z,1015.93
2022-11-02T09:17:29.604Z,1015.81
2022-11-02T09:18:29.501Z,1015.88
2022-11-02T09:19:29.467Z,1015.84
2022-11-02T09:20:29.446Z,1015.79
2022-11-02T09:21:29.398Z,1015.84
2022-11-02T09:22:29.372Z,1015.88
2022-11-02T09:23:29.410Z,1015.86
2022-11-02T09:24:29.309Z,1015.85
2022-11-02T09:25:29.311Z,1015.86
2022-11-02T09:26:29.237Z,1015.94
2022-11-02T09:27:29.209Z,1015.88
2022-11-02T09:28:29.240Z,1015.91
2022-11-02T09:29:29.146Z,1015.93
2022-11-02T09:30:29.126Z,1015.93
2022-11-02T09:31:29.080Z,1015.94
2022-11-02T09:32:29.053Z,1015.90
2022-11-02T09:33:29.019Z,1015.95
2022-11-02T09:34:29.034Z,1015.92
2022-11-02T09:35:28.958Z,1015.96
2022-11-02T09:36:28.930Z,1015.99
2022-11-02T09:37:28.941Z,1015.93
2022-11-02T09:38:28.858Z,1015.94
2022-11-02T09:39:28.876Z,1015.99
2022-11-02T09:40:28.934Z,1015.98
2022-11-02T09:41:28.773Z,1015.94
2022-11-02T09:42:28.780Z,1015.97
2022-11-02T09:43:32.472Z,1015.95
2022-11-02T09:44:28.674Z,1015.97
2022-11-02T09:45:28.640Z,1016.04
2022-11-02T09:46:28.605Z,1015.99
2022-11-02T09:48:10.750Z,1016.03
2022-11-02T09:48:28.952Z,1016.06
2022-11-02T09:49:28.541Z,1016.06
2022-11-02T09:50:28.512Z,1016.11
2022-11-02T09:51:28.458Z,1016.08
2022-11-02T09:52:28.444Z,1016.04
2022-11-02T09:53:28.527Z,1016.08
2022-11-02T09:54:28.353Z,1016.11
2022-11-02T09:55:28.391Z,1016.11
2022-11-02T09:56:28.314Z,1016.08
2022-11-02T09:57:28.312Z,1016.06
2022-11-02T09:58:28.279Z,1016.05
2022-11-02T09:59:28.345Z,1016.01
2022-11-02T10:00:28.173Z,1016.05
2022-11-02T10:01:28.234Z,1016.06
2022-11-02T10:02:28.115Z,1016.11
2022-11-02T10:03:28.070Z,1016.03
2022-11-02T10:04:28.038Z,1016.03
2022-11-02T10:05:28.058Z,1016.06
2022-11-02T10:06:27.971Z,1016.07
2022-11-02T10:07:27.985Z,1016.12
2022-11-02T10:08:27.910Z,1016.12
2022-11-02T10:09:27.878Z,1016.14
2022-11-02T10:10:27.899Z,1016.07
2022-11-02T10:11:27.842Z,1016.10
2022-11-02T10:12:28.675Z,1016.07
2022-11-02T10:13:27.771Z,1016.05
2022-11-02T10:14:27.720Z,1016.17
2022-11-02T10:15:27.694Z,1016.17
2022-11-02T10:16:27.789Z,1016.09
2022-11-02T10:17:27.632Z,1016.12
2022-11-02T10:18:27.616Z,1016.13
2022-11-02T10:19:30.324Z,1016.13
2022-11-02T10:20:27.531Z,1016.12
2022-11-02T10:21:27.499Z,1016.08
2022-11-02T10:22:27.523Z,1016.12
2022-11-02T10:23:27.436Z,1016.05
2022-11-02T10:24:27.407Z,1016.10
2022-11-02T10:25:27.375Z,1016.05
2022-11-02T10:26:27.343Z,1015.99
2022-11-02T10:27:28.112Z,1016.10
2022-11-02T10:28:27.424Z,1016.06
2022-11-02T10:29:27.265Z,1016.03
2022-11-02T10:30:27.221Z,1016.08
2022-11-02T10:31:27.183Z,1015.98
2022-11-02T10:32:27.155Z,1016.06
2022-11-02T10:33:27.136Z,1015.96
2022-11-02T10:34:27.250Z,1015.99
2022-11-02T10:35:37.140Z,1015.97
2022-11-02T10:36:27.029Z,1016.04
2022-11-02T10:37:27.035Z,1015.97
2022-11-02T10:38:27.035Z,1016.02
2022-11-02T10:39:26.936Z,1015.99
2022-11-02T10:40:26.903Z,1015.97
2022-11-02T10:41:26.876Z,1015.91
2022-11-02T10:42:26.848Z,1015.98
2022-11-02T10:43:26.805Z,1016.04
2022-11-02T10:44:26.852Z,1016.05
2022-11-02T10:45:26.749Z,1016.02
2022-11-02T10:46:26.716Z,1016.02
2022-11-02T10:47:26.682Z,1016.10
2022-11-02T10:48:26.656Z,1016.10
2022-11-02T10:49:26.635Z,1016.15
2022-11-02T10:50:26.677Z,1016.14
2022-11-02T10:51:26.561Z,1016.14
2022-11-02T10:52:26.554Z,1016.16
2022-11-02T10:53:40.680Z,1016.17
2022-11-02T10:54:33.307Z,1016.14
2022-11-02T10:55:26.488Z,1016.14
2022-11-02T10:56:26.429Z,1016.23
2022-11-02T10:57:26.381Z,1016.16
2022-11-02T10:58:26.340Z,1016.20
2022-11-02T10:59:26.308Z,1016.12
2022-11-02T11:00:26.713Z,1016.19
2022-11-02T11:01:26.349Z,1016.22
2022-11-02T11:02:26.222Z,1016.29
2022-11-02T11:03:26.185Z,1016.32
2022-11-02T11:04:26.160Z,1016.30
2022-11-02T11:05:26.122Z,1016.31
2022-11-02T11:06:26.158Z,1016.32
2022-11-02T11:07:26.061Z,1016.32
2022-11-02T11:08:26.033Z,1016.33
2022-11-02T11:09:26.003Z,1016.33
2022-11-02T11:10:25.968Z,1016.42
2022-11-02T11:11:25.998Z,1016.35
2022-11-02T11:12:25.917Z,1016.41
2022-11-02T11:16:26.646Z,1016.34
2022-11-02T11:19:41.474Z,1016.37
2022-11-02T11:20:25.667Z,1016.35
2022-11-02T11:21:25.640Z,1016.35
2022-11-02T11:22:25.655Z,1016.40
2022-11-02T11:23:25.580Z,1016.44
2022-11-02T11:24:25.577Z,1016.49
2022-11-02T11:25:28.213Z,1016.38
2022-11-02T11:26:25.489Z,1016.48
2022-11-02T11:27:25.459Z,1016.46
2022-11-02T11:28:25.514Z,1016.43
2022-11-02T11:29:25.396Z,1016.35
2022-11-02T11:30:59.494Z,1016.32
2022-11-02T11:31:25.333Z,1016.40
2022-11-02T11:32:29.936Z,1016.38
2022-11-02T11:33:25.282Z,1016.41
2022-11-02T11:34:25.301Z,1016.42
2022-11-02T11:35:25.221Z,1016.46
2022-11-02T11:37:25.360Z,1016.47
2022-11-02T11:38:25.124Z,1016.52
2022-11-02T11:39:25.162Z,1016.42
2022-11-02T11:40:25.064Z,1016.41
2022-11-02T11:41:25.034Z,1016.43
2022-11-02T11:42:25.001Z,1016.49
2022-11-02T11:43:24.996Z,1016.44
2022-11-02T11:44:24.989Z,1016.45
2022-11-02T11:45:24.912Z,1016.48
2022-11-02T11:46:24.886Z,1016.43
2022-11-02T11:47:24.856Z,1016.39
2022-11-02T11:48:24.832Z,1016.42
2022-11-02T11:49:35.975Z,1016.44
2022-11-02T11:50:29.987Z,1016.28
2022-11-02T11:51:25.711Z,1016.38
2022-11-02T11:52:30.898Z,1016.43
2022-11-02T11:53:24.678Z,1016.46
2022-11-02T11:54:25.550Z,1016.37
2022-11-02T11:55:24.820Z,1016.42
2022-11-02T11:56:24.600Z,1016.34
2022-11-02T11:57:25.225Z,1016.35
2022-11-02T11:58:24.524Z,1016.44
2022-11-02T11:59:24.551Z,1016.47
2022-11-02T12:00:24.523Z,1016.29
2022-11-02T12:01:24.541Z,1016.44
2022-11-02T12:02:24.568Z,1016.39
2022-11-02T12:03:24.446Z,1016.41
2022-11-02T12:04:24.349Z,1016.40
2022-11-02T12:05:24.321Z,1016.39
2022-11-02T12:06:24.287Z,1016.40
2022-11-02T12:07:24.462Z,1016.38
2022-11-02T12:08:24.439Z,1016.41
2022-11-02T12:09:24.198Z,1016.35
2022-11-02T12:10:24.242Z,1016.35
2022-11-02T12:11:24.140Z,1016.39
2022-11-02T12:12:24.106Z,1016.46